sensor_id;sensor_type;location;lat;lon;timestamp;pressure;altitude;pressure_sealevel;temperature;humidity
60854;BME280;48554;50.766;2.900;2023-01-26T00:00:57;101876.72;;;18.25;38.83
60854;BME280;48554;50.766;2.900;2023-01-26T00:03:17;101876.53;;;18.38;38.65
60854;BME280;48554;50.766;2.900;2023-01-26T00:05:38;101876.13;;;18.42;38.85
60854;BME280;48554;50.766;2.900;2023-01-26T00:07:58;101876.44;;;18.15;39.33
60854;BME280;48554;50.766;2.900;2023-01-26T00:10:19;101884.03;;;18.00;39.58
60854;BME280;48554;50.766;2.900;2023-01-26T00:12:39;101868.97;;;17.80;39.70
60854;BME280;48554;50.766;2.900;2023-01-26T00:14:59;101878.66;;;17.74;39.68
60854;BME280;48554;50.766;2.900;2023-01-26T00:17:20;101872.81;;;17.84;39.51
60854;BME280;48554;50.766;2.900;2023-01-26T00:19:40;101866.88;;;18.01;39.39
60854;BME280;48554;50.766;2.900;2023-01-26T00:22:00;101865.38;;;18.23;38.84
60854;BME280;48554;50.766;2.900;2023-01-26T00:24:20;101867.25;;;18.23;38.93
60854;BME280;48554;50.766;2.900;2023-01-26T00:26:41;101861.59;;;18.12;39.04
60854;BME280;48554;50.766;2.900;2023-01-26T00:29:01;101855.72;;;18.04;39.25
60854;BME280;48554;50.766;2.900;2023-01-26T00:31:24;101852.28;;;17.96;39.24
60854;BME280;48554;50.766;2.900;2023-01-26T00:33:44;101847.22;;;17.88;39.36
60854;BME280;48554;50.766;2.900;2023-01-26T00:36:05;101845.44;;;18.01;39.02
60854;BME280;48554;50.766;2.900;2023-01-26T00:38:26;101851.34;;;18.09;38.73
60854;BME280;48554;50.766;2.900;2023-01-26T00:40:46;101839.09;;;18.13;38.91
60854;BME280;48554;50.766;2.900;2023-01-26T00:43:06;101833.66;;;18.02;39.11
60854;BME280;48554;50.766;2.900;2023-01-26T00:45:26;101843.94;;;17.86;39.39
60854;BME280;48554;50.766;2.900;2023-01-26T00:47:47;101833.66;;;17.83;39.32
60854;BME280;48554;50.766;2.900;2023-01-26T00:50:08;101827.06;;;17.79;39.37
60854;BME280;48554;50.766;2.900;2023-01-26T00:52:28;101834.72;;;18.01;39.11
60854;BME280;48554;50.766;2.900;2023-01-26T00:54:49;101835.38;;;18.14;38.67
60854;BME280;48554;50.766;2.900;2023-01-26T00:57:09;101832.22;;;18.36;38.41
60854;BME280;48554;50.766;2.900;2023-01-26T00:59:29;101828.25;;;18.38;38.32
60854;BME280;48554;50.766;2.900;2023-01-26T01:01:50;101832.09;;;18.12;38.63
60854;BME280;48554;50.766;2.900;2023-01-26T01:04:11;101830.00;;;17.96;39.10
60854;BME280;48554;50.766;2.900;2023-01-26T01:06:31;101833.66;;;17.83;39.22
60854;BME280;48554;50.766;2.900;2023-01-26T01:08:51;101826.72;;;17.75;39.10
60854;BME280;48554;50.766;2.900;2023-01-26T01:11:11;101824.56;;;17.84;39.14
60854;BME280;48554;50.766;2.900;2023-01-26T01:13:32;101824.19;;;18.17;38.52
60854;BME280;48554;50.766;2.900;2023-01-26T01:15:52;101818.13;;;18.40;38.25
60854;BME280;48554;50.766;2.900;2023-01-26T01:18:13;101824.22;;;18.48;38.31
60854;BME280;48554;50.766;2.900;2023-01-26T01:20:33;101825.56;;;18.38;38.32
60854;BME280;48554;50.766;2.900;2023-01-26T01:22:53;101826.81;;;18.24;38.62
60854;BME280;48554;50.766;2.900;2023-01-26T01:25:14;101821.00;;;18.09;38.78
60854;BME280;48554;50.766;2.900;2023-01-26T01:27:34;101828.16;;;17.96;38.96
60854;BME280;48554;50.766;2.900;2023-01-26T01:29:54;101826.38;;;17.90;39.06
60854;BME280;48554;50.766;2.900;2023-01-26T01:32:14;101823.81;;;18.14;38.81
60854;BME280;48554;50.766;2.900;2023-01-26T01:34:35;101812.94;;;18.27;38.54
60854;BME280;48554;50.766;2.900;2023-01-26T01:36:55;101822.06;;;18.38;38.38
60854;BME280;48554;50.766;2.900;2023-01-26T01:39:15;101817.09;;;18.42;38.31
60854;BME280;48554;50.766;2.900;2023-01-26T01:41:36;101813.88;;;18.33;38.50
60854;BME280;48554;50.766;2.900;2023-01-26T01:44:17;101822.94;;;18.20;38.48
60854;BME280;48554;50.766;2.900;2023-01-26T01:46:38;101821.97;;;18.14;38.78
60854;BME280;48554;50.766;2.900;2023-01-26T01:49:29;101816.47;;;18.09;38.96
60854;BME280;48554;50.766;2.900;2023-01-26T01:54:33;101827.34;;;18.45;38.21
60854;BME280;48554;50.766;2.900;2023-01-26T01:56:57;101823.66;;;18.27;38.46
60854;BME280;48554;50.766;2.900;2023-01-26T01:59:19;101810.25;;;18.09;38.81
60854;BME280;48554;50.766;2.900;2023-01-26T02:01:40;101818.91;;;18.11;38.77
60854;BME280;48554;50.766;2.900;2023-01-26T02:04:04;101821.13;;;18.14;38.81
60854;BME280;48554;50.766;2.900;2023-01-26T02:06:30;101818.03;;;18.17;38.60
60854;BME280;48554;50.766;2.900;2023-01-26T02:08:54;101817.75;;;18.37;38.18
60854;BME280;48554;50.766;2.900;2023-01-26T02:11:18;101823.66;;;18.57;38.05
60854;BME280;48554;50.766;2.900;2023-01-26T02:13:40;101820.50;;;18.49;38.29
60854;BME280;48554;50.766;2.900;2023-01-26T02:16:01;101824.41;;;18.34;38.36
60854;BME280;48554;50.766;2.900;2023-01-26T02:18:21;101821.28;;;18.19;38.65
60854;BME280;48554;50.766;2.900;2023-01-26T02:20:50;101814.59;;;18.10;38.63
60854;BME280;48554;50.766;2.900;2023-01-26T02:28:09;101810.41;;;18.32;38.48
60854;BME280;48554;50.766;2.900;2023-01-26T02:30:30;101819.72;;;18.60;38.10
60854;BME280;48554;50.766;2.900;2023-01-26T02:32:50;101816.94;;;18.67;37.93
60854;BME280;48554;50.766;2.900;2023-01-26T02:35:10;101818.69;;;18.61;38.01
60854;BME280;48554;50.766;2.900;2023-01-26T02:37:31;101811.72;;;18.42;38.40
60854;BME280;48554;50.766;2.900;2023-01-26T02:39:59;101819.13;;;18.28;38.68
60854;BME280;48554;50.766;2.900;2023-01-26T02:42:22;101816.63;;;18.14;38.75
60854;BME280;48554;50.766;2.900;2023-01-26T02:44:43;101826.00;;;18.05;39.02
60854;BME280;48554;50.766;2.900;2023-01-26T02:47:14;101818.16;;;18.22;38.55
60854;BME280;48554;50.766;2.900;2023-01-26T02:49:35;101813.41;;;18.54;38.06
60854;BME280;48554;50.766;2.900;2023-01-26T02:51:55;101814.34;;;18.60;37.97
60854;BME280;48554;50.766;2.900;2023-01-26T02:54:15;101811.53;;;18.55;38.20
60854;BME280;48554;50.766;2.900;2023-01-26T02:56:36;101815.00;;;18.44;38.41
60854;BME280;48554;50.766;2.900;2023-01-26T02:58:56;101814.84;;;18.38;38.49
60854;BME280;48554;50.766;2.900;2023-01-26T03:01:16;101817.25;;;18.28;38.63
60854;BME280;48554;50.766;2.900;2023-01-26T03:03:36;101811.81;;;18.16;38.76
60854;BME280;48554;50.766;2.900;2023-01-26T03:05:56;101809.66;;;18.25;38.64
60854;BME280;48554;50.766;2.900;2023-01-26T03:08:17;101817.69;;;18.44;38.26
60854;BME280;48554;50.766;2.900;2023-01-26T03:10:38;101811.31;;;18.56;37.92
60854;BME280;48554;50.766;2.900;2023-01-26T03:12:58;101812.75;;;18.40;38.31
60854;BME280;48554;50.766;2.900;2023-01-26T03:15:18;101805.69;;;18.28;38.60
60854;BME280;48554;50.766;2.900;2023-01-26T03:17:38;101815.03;;;18.25;38.53
60854;BME280;48554;50.766;2.900;2023-01-26T03:19:59;101806.16;;;18.25;38.74
60854;BME280;48554;50.766;2.900;2023-01-26T03:22:19;101802.66;;;18.24;38.58
60854;BME280;48554;50.766;2.900;2023-01-26T03:24:39;101808.38;;;18.46;38.19
60854;BME280;48554;50.766;2.900;2023-01-26T03:27:00;101802.75;;;18.48;38.21
60854;BME280;48554;50.766;2.900;2023-01-26T03:29:20;101805.84;;;18.63;38.01
60854;BME280;48554;50.766;2.900;2023-01-26T03:31:40;101808.94;;;18.48;38.14
60854;BME280;48554;50.766;2.900;2023-01-26T03:34:01;101811.00;;;18.34;38.47
60854;BME280;48554;50.766;2.900;2023-01-26T03:36:21;101808.91;;;18.18;38.73
60854;BME280;48554;50.766;2.900;2023-01-26T03:38:41;101816.22;;;18.11;38.99
60854;BME280;48554;50.766;2.900;2023-01-26T03:41:02;101806.97;;;18.07;39.00
60854;BME280;48554;50.766;2.900;2023-01-26T03:43:22;101808.97;;;18.30;38.58
60854;BME280;48554;50.766;2.900;2023-01-26T03:45:42;101812.00;;;18.52;38.22
60854;BME280;48554;50.766;2.900;2023-01-26T03:48:04;101809.41;;;18.75;37.74
60854;BME280;48554;50.766;2.900;2023-01-26T03:50:25;101811.09;;;18.70;37.83
60854;BME280;48554;50.766;2.900;2023-01-26T03:52:45;101810.38;;;18.51;38.31
60854;BME280;48554;50.766;2.900;2023-01-26T03:55:05;101811.22;;;18.33;38.54
60854;BME280;48554;50.766;2.900;2023-01-26T03:57:28;101804.00;;;18.15;38.82
60854;BME280;48554;50.766;2.900;2023-01-26T03:59:48;101805.50;;;18.11;38.91
60854;BME280;48554;50.766;2.900;2023-01-26T04:02:10;101799.78;;;18.07;38.90
60854;BME280;48554;50.766;2.900;2023-01-26T04:04:31;101801.16;;;18.28;38.51
60854;BME280;48554;50.766;2.900;2023-01-26T04:06:51;101798.78;;;18.50;38.11
60854;BME280;48554;50.766;2.900;2023-01-26T04:09:12;101793.84;;;18.66;37.88
60854;BME280;48554;50.766;2.900;2023-01-26T04:11:32;101789.03;;;18.56;38.19
60854;BME280;48554;50.766;2.900;2023-01-26T04:13:52;101791.00;;;18.49;38.18
60854;BME280;48554;50.766;2.900;2023-01-26T04:16:12;101788.47;;;18.35;38.59
60854;BME280;48554;50.766;2.900;2023-01-26T04:18:33;101785.16;;;18.22;38.71
60854;BME280;48554;50.766;2.900;2023-01-26T04:20:53;101790.59;;;18.15;38.78
60854;BME280;48554;50.766;2.900;2023-01-26T04:23:17;101799.00;;;18.18;38.71
60854;BME280;48554;50.766;2.900;2023-01-26T04:25:38;101790.56;;;18.33;38.45
60854;BME280;48554;50.766;2.900;2023-01-26T04:27:58;101788.72;;;18.46;38.25
60854;BME280;48554;50.766;2.900;2023-01-26T04:30:18;101798.31;;;18.42;38.47
60854;BME280;48554;50.766;2.900;2023-01-26T04:32:39;101795.03;;;18.39;38.34
60854;BME280;48554;50.766;2.900;2023-01-26T04:34:59;101796.06;;;18.38;38.37
60854;BME280;48554;50.766;2.900;2023-01-26T04:37:19;101800.00;;;18.36;38.43
60854;BME280;48554;50.766;2.900;2023-01-26T04:39:39;101793.03;;;18.35;38.38
60854;BME280;48554;50.766;2.900;2023-01-26T04:42:00;101799.38;;;18.22;38.73
60854;BME280;48554;50.766;2.900;2023-01-26T04:44:20;101805.75;;;18.39;38.47
60854;BME280;48554;50.766;2.900;2023-01-26T04:46:40;101801.13;;;18.47;38.21
60854;BME280;48554;50.766;2.900;2023-01-26T04:49:00;101792.41;;;18.51;38.27
60854;BME280;48554;50.766;2.900;2023-01-26T04:51:21;101814.84;;;18.38;38.22
60854;BME280;48554;50.766;2.900;2023-01-26T04:53:42;101809.31;;;18.22;38.73
60854;BME280;48554;50.766;2.900;2023-01-26T04:56:02;101806.69;;;18.15;38.91
60854;BME280;48554;50.766;2.900;2023-01-26T04:58:23;101804.63;;;18.17;38.66
60854;BME280;48554;50.766;2.900;2023-01-26T05:00:43;101796.91;;;18.21;38.75
60854;BME280;48554;50.766;2.900;2023-01-26T05:03:04;101805.31;;;18.43;38.49
60854;BME280;48554;50.766;2.900;2023-01-26T05:05:24;101791.38;;;18.64;37.96
60854;BME280;48554;50.766;2.900;2023-01-26T05:07:44;101805.59;;;18.65;38.17
60854;BME280;48554;50.766;2.900;2023-01-26T05:10:05;101794.69;;;18.48;38.13
60854;BME280;48554;50.766;2.900;2023-01-26T05:12:25;101801.75;;;18.30;38.56
60854;BME280;48554;50.766;2.900;2023-01-26T05:14:45;101794.25;;;18.21;38.83
60854;BME280;48554;50.766;2.900;2023-01-26T05:17:05;101797.25;;;18.12;38.76
60854;BME280;48554;50.766;2.900;2023-01-26T05:19:26;101793.00;;;18.05;39.16
60854;BME280;48554;50.766;2.900;2023-01-26T05:21:46;101784.63;;;18.13;38.96
60854;BME280;48554;50.766;2.900;2023-01-26T05:24:06;101789.66;;;18.39;38.16
60854;BME280;48554;50.766;2.900;2023-01-26T05:26:27;101790.31;;;18.65;37.83
60854;BME280;48554;50.766;2.900;2023-01-26T05:28:47;101788.00;;;18.69;37.98
60854;BME280;48554;50.766;2.900;2023-01-26T05:31:07;101791.47;;;18.57;38.03
60854;BME280;48554;50.766;2.900;2023-01-26T05:33:27;101789.66;;;18.39;38.36
60854;BME280;48554;50.766;2.900;2023-01-26T05:35:48;101793.56;;;18.25;38.67
60854;BME280;48554;50.766;2.900;2023-01-26T05:38:08;101794.91;;;18.16;39.00
60854;BME280;48554;50.766;2.900;2023-01-26T05:40:29;101788.81;;;18.09;38.87
60854;BME280;48554;50.766;2.900;2023-01-26T05:42:49;101801.25;;;18.22;38.94
60854;BME280;48554;50.766;2.900;2023-01-26T05:45:10;101791.00;;;18.30;38.44
60854;BME280;48554;50.766;2.900;2023-01-26T05:47:30;101797.38;;;18.48;38.10
60854;BME280;48554;50.766;2.900;2023-01-26T05:49:50;101794.97;;;18.58;38.01
60854;BME280;48554;50.766;2.900;2023-01-26T05:52:14;101790.16;;;18.48;38.40
60854;BME280;48554;50.766;2.900;2023-01-26T05:54:35;101790.47;;;18.40;38.17
60854;BME280;48554;50.766;2.900;2023-01-26T05:56:56;101795.50;;;18.36;38.61
60854;BME280;48554;50.766;2.900;2023-01-26T05:59:16;101791.94;;;18.24;38.60
60854;BME280;48554;50.766;2.900;2023-01-26T06:01:36;101804.00;;;18.15;38.85
60854;BME280;48554;50.766;2.900;2023-01-26T06:03:56;101791.00;;;18.30;38.60
60854;BME280;48554;50.766;2.900;2023-01-26T06:06:17;101783.03;;;18.42;38.30
60854;BME280;48554;50.766;2.900;2023-01-26T06:08:37;101792.63;;;18.50;38.07
60854;BME280;48554;50.766;2.900;2023-01-26T06:10:58;101784.16;;;18.34;38.40
60854;BME280;48554;50.766;2.900;2023-01-26T06:13:19;101785.72;;;18.24;38.76
60854;BME280;48554;50.766;2.900;2023-01-26T06:15:39;101789.09;;;18.19;38.83
60854;BME280;48554;50.766;2.900;2023-01-26T06:18:00;101789.69;;;18.21;38.84
60854;BME280;48554;50.766;2.900;2023-01-26T06:20:20;101786.56;;;18.24;38.85
60854;BME280;48554;50.766;2.900;2023-01-26T06:22:40;101799.00;;;18.37;38.84
60854;BME280;48554;50.766;2.900;2023-01-26T06:25:01;101794.47;;;18.49;38.80
60854;BME280;48554;50.766;2.900;2023-01-26T06:27:21;101792.19;;;18.65;38.40
60854;BME280;48554;50.766;2.900;2023-01-26T06:29:42;101801.59;;;18.44;38.66
60854;BME280;48554;50.766;2.900;2023-01-26T06:32:02;101800.13;;;18.29;39.21
60854;BME280;48554;50.766;2.900;2023-01-26T06:34:23;101784.84;;;18.11;39.18
60854;BME280;48554;50.766;2.900;2023-01-26T06:36:43;101792.53;;;18.08;39.57
60854;BME280;48554;50.766;2.900;2023-01-26T06:39:03;101795.91;;;18.03;39.49
60854;BME280;48554;50.766;2.900;2023-01-26T06:41:23;101799.44;;;18.34;39.39
60854;BME280;48554;50.766;2.900;2023-01-26T06:43:46;101800.56;;;18.56;39.52
60854;BME280;48554;50.766;2.900;2023-01-26T06:46:07;101797.81;;;18.75;39.52
60854;BME280;48554;50.766;2.900;2023-01-26T06:48:29;101802.03;;;18.71;38.54
60854;BME280;48554;50.766;2.900;2023-01-26T06:50:50;101805.44;;;18.48;39.41
60854;BME280;48554;50.766;2.900;2023-01-26T06:53:25;101806.66;;;18.33;39.80
60854;BME280;48554;50.766;2.900;2023-01-26T06:55:48;101823.06;;;18.25;40.31
60854;BME280;48554;50.766;2.900;2023-01-26T06:58:08;101816.97;;;18.18;40.71
60854;BME280;48554;50.766;2.900;2023-01-26T07:00:28;101826.44;;;18.21;42.66
60854;BME280;48554;50.766;2.900;2023-01-26T07:02:48;101825.75;;;18.25;41.72
60854;BME280;48554;50.766;2.900;2023-01-26T07:05:09;101831.19;;;18.18;41.75
60854;BME280;48554;50.766;2.900;2023-01-26T07:07:29;101832.31;;;18.11;41.42
60854;BME280;48554;50.766;2.900;2023-01-26T07:09:49;101854.44;;;18.06;41.34
60854;BME280;48554;50.766;2.900;2023-01-26T07:12:09;101845.44;;;18.01;41.53
60854;BME280;48554;50.766;2.900;2023-01-26T07:14:33;101847.97;;;17.95;41.84
60854;BME280;48554;50.766;2.900;2023-01-26T07:16:53;101852.13;;;17.91;41.82
60854;BME280;48554;50.766;2.900;2023-01-26T07:19:13;101846.03;;;17.84;41.79
60854;BME280;48554;50.766;2.900;2023-01-26T07:21:33;101842.16;;;17.80;42.17
60854;BME280;48554;50.766;2.900;2023-01-26T07:23:54;101848.50;;;17.79;42.35
60854;BME280;48554;50.766;2.900;2023-01-26T07:26:15;101859.25;;;17.79;42.42
60854;BME280;48554;50.766;2.900;2023-01-26T07:28:35;101860.72;;;17.75;42.36
60854;BME280;48554;50.766;2.900;2023-01-26T07:31:00;101850.84;;;17.75;42.24
60854;BME280;48554;50.766;2.900;2023-01-26T07:33:20;101865.91;;;17.70;42.38
60854;BME280;48554;50.766;2.900;2023-01-26T07:35:40;101865.31;;;17.68;42.45
60854;BME280;48554;50.766;2.900;2023-01-26T07:38:03;101881.41;;;17.68;42.63
60854;BME280;48554;50.766;2.900;2023-01-26T07:40:24;101872.19;;;17.64;42.50
60854;BME280;48554;50.766;2.900;2023-01-26T07:42:44;101883.72;;;17.64;42.16
60854;BME280;48554;50.766;2.900;2023-01-26T07:45:05;101882.28;;;17.62;42.31
60854;BME280;48554;50.766;2.900;2023-01-26T07:47:25;101889.13;;;17.58;42.59
60854;BME280;48554;50.766;2.900;2023-01-26T07:49:46;101891.78;;;17.58;42.39
60854;BME280;48554;50.766;2.900;2023-01-26T07:52:06;101889.56;;;17.54;42.18
60854;BME280;48554;50.766;2.900;2023-01-26T07:54:26;101894.94;;;17.54;42.28
60854;BME280;48554;50.766;2.900;2023-01-26T07:56:50;101901.34;;;17.53;42.25
60854;BME280;48554;50.766;2.900;2023-01-26T07:59:10;101904.44;;;17.50;42.14
60854;BME280;48554;50.766;2.900;2023-01-26T08:01:31;101918.88;;;17.49;42.26
60854;BME280;48554;50.766;2.900;2023-01-26T08:03:51;101915.53;;;17.54;42.15
60854;BME280;48554;50.766;2.900;2023-01-26T08:06:12;101915.41;;;17.67;41.84
60854;BME280;48554;50.766;2.900;2023-01-26T08:08:32;101914.16;;;17.70;42.01
60854;BME280;48554;50.766;2.900;2023-01-26T08:10:57;101916.69;;;17.65;41.93
60854;BME280;48554;50.766;2.900;2023-01-26T08:13:17;101918.19;;;17.61;42.16
60854;BME280;48554;50.766;2.900;2023-01-26T08:15:37;101922.53;;;17.55;42.19
60854;BME280;48554;50.766;2.900;2023-01-26T08:17:58;101932.88;;;17.51;42.18
60854;BME280;48554;50.766;2.900;2023-01-26T08:20:18;101925.28;;;17.48;42.24
60854;BME280;48554;50.766;2.900;2023-01-26T08:22:38;101920.56;;;17.44;42.42
60854;BME280;48554;50.766;2.900;2023-01-26T08:24:59;101923.03;;;17.45;42.10
60854;BME280;48554;50.766;2.900;2023-01-26T08:27:19;101927.78;;;17.43;42.30
60854;BME280;48554;50.766;2.900;2023-01-26T08:29:39;101933.38;;;17.42;42.35
60854;BME280;48554;50.766;2.900;2023-01-26T08:31:59;101945.34;;;17.39;42.34
60854;BME280;48554;50.766;2.900;2023-01-26T08:34:20;101936.91;;;17.36;42.29
60854;BME280;48554;50.766;2.900;2023-01-26T08:36:40;101945.75;;;17.36;42.37
60854;BME280;48554;50.766;2.900;2023-01-26T08:39:00;101946.19;;;17.33;42.21
60854;BME280;48554;50.766;2.900;2023-01-26T08:41:20;101950.94;;;17.31;42.48
60854;BME280;48554;50.766;2.900;2023-01-26T08:43:41;101949.91;;;17.32;42.15
60854;BME280;48554;50.766;2.900;2023-01-26T08:46:02;101962.66;;;17.37;42.17
60854;BME280;48554;50.766;2.900;2023-01-26T08:48:22;101959.06;;;17.49;41.97
60854;BME280;48554;50.766;2.900;2023-01-26T08:50:43;101957.38;;;17.55;41.87
60854;BME280;48554;50.766;2.900;2023-01-26T08:53:03;101954.31;;;17.51;41.83
60854;BME280;48554;50.766;2.900;2023-01-26T08:55:24;101961.34;;;17.46;41.99
60854;BME280;48554;50.766;2.900;2023-01-26T08:57:44;101956.66;;;17.41;42.13
60854;BME280;48554;50.766;2.900;2023-01-26T09:00:05;101964.28;;;17.38;42.21
60854;BME280;48554;50.766;2.900;2023-01-26T09:02:25;101970.91;;;17.35;42.38
60854;BME280;48554;50.766;2.900;2023-01-26T09:04:45;101972.97;;;17.33;42.34
60854;BME280;48554;50.766;2.900;2023-01-26T09:07:05;101976.09;;;17.30;42.42
60854;BME280;48554;50.766;2.900;2023-01-26T09:09:26;101968.25;;;17.28;42.35
60854;BME280;48554;50.766;2.900;2023-01-26T09:11:46;101973.00;;;17.26;42.28
60854;BME280;48554;50.766;2.900;2023-01-26T09:14:06;101967.88;;;17.25;42.39
60854;BME280;48554;50.766;2.900;2023-01-26T09:16:27;101967.28;;;17.23;42.48
60854;BME280;48554;50.766;2.900;2023-01-26T09:18:52;101976.34;;;17.22;42.22
60854;BME280;48554;50.766;2.900;2023-01-26T09:21:12;101962.56;;;17.18;42.34
60854;BME280;48554;50.766;2.900;2023-01-26T09:23:33;101976.09;;;17.30;42.03
60854;BME280;48554;50.766;2.900;2023-01-26T09:25:54;101975.41;;;17.41;41.80
60854;BME280;48554;50.766;2.900;2023-01-26T09:28:14;101972.50;;;17.43;41.79
60854;BME280;48554;50.766;2.900;2023-01-26T09:30:34;101975.00;;;17.38;42.00
60854;BME280;48554;50.766;2.900;2023-01-26T09:32:59;101992.78;;;17.32;42.41
60854;BME280;48554;50.766;2.900;2023-01-26T09:35:20;101974.88;;;17.26;42.38
60854;BME280;48554;50.766;2.900;2023-01-26T09:37:42;101976.72;;;17.25;42.24
60854;BME280;48554;50.766;2.900;2023-01-26T09:40:03;101988.50;;;17.24;42.46
60854;BME280;48554;50.766;2.900;2023-01-26T09:49:59;101993.88;;;17.18;42.35
60854;BME280;48554;50.766;2.900;2023-01-26T09:52:35;101986.88;;;17.17;42.49
60854;BME280;48554;50.766;2.900;2023-01-26T09:54:58;101987.91;;;17.16;42.33
60854;BME280;48554;50.766;2.900;2023-01-26T09:57:28;101992.22;;;17.17;42.43
60854;BME280;48554;50.766;2.900;2023-01-26T09:59:59;101999.16;;;17.31;42.13
60854;BME280;48554;50.766;2.900;2023-01-26T10:02:45;101998.31;;;17.37;42.05
60854;BME280;48554;50.766;2.900;2023-01-26T10:07:47;101996.91;;;17.28;42.45
60854;BME280;48554;50.766;2.900;2023-01-26T10:10:14;101999.41;;;17.23;42.39
60854;BME280;48554;50.766;2.900;2023-01-26T10:12:37;102001.47;;;17.21;42.57
60854;BME280;48554;50.766;2.900;2023-01-26T10:17:35;102010.75;;;17.18;42.74
60854;BME280;48554;50.766;2.900;2023-01-26T10:20:24;102011.81;;;17.17;42.62
60854;BME280;48554;50.766;2.900;2023-01-26T10:22:51;102020.03;;;17.16;42.75
60854;BME280;48554;50.766;2.900;2023-01-26T10:25:32;102021.09;;;17.15;42.54
60854;BME280;48554;50.766;2.900;2023-01-26T10:27:53;102029.94;;;17.15;42.51
60854;BME280;48554;50.766;2.900;2023-01-26T10:30:15;102021.28;;;17.13;42.74
60854;BME280;48554;50.766;2.900;2023-01-26T10:32:36;102022.72;;;17.16;42.51
60854;BME280;48554;50.766;2.900;2023-01-26T10:34:56;102017.09;;;17.30;42.15
60854;BME280;48554;50.766;2.900;2023-01-26T10:37:27;102017.44;;;17.41;42.35
60854;BME280;48554;50.766;2.900;2023-01-26T10:40:01;102023.22;;;17.38;42.07
60854;BME280;48554;50.766;2.900;2023-01-26T10:42:22;102029.47;;;17.31;42.30
60854;BME280;48554;50.766;2.900;2023-01-26T10:44:45;102023.31;;;17.24;42.58
60854;BME280;48554;50.766;2.900;2023-01-26T10:47:15;102031.56;;;17.23;42.82
60854;BME280;48554;50.766;2.900;2023-01-26T10:49:36;102030.94;;;17.21;42.77
60854;BME280;48554;50.766;2.900;2023-01-26T10:52:19;102040.84;;;17.20;42.72
60854;BME280;48554;50.766;2.900;2023-01-26T10:54:40;102038.34;;;17.19;42.80
60854;BME280;48554;50.766;2.900;2023-01-26T10:57:13;102028.91;;;17.16;42.80
60854;BME280;48554;50.766;2.900;2023-01-26T11:00:02;102028.09;;;17.16;42.80
60854;BME280;48554;50.766;2.900;2023-01-26T11:02:28;102029.31;;;17.13;42.85
60854;BME280;48554;50.766;2.900;2023-01-26T11:07:40;102029.53;;;17.11;42.81
60854;BME280;48554;50.766;2.900;2023-01-26T11:10:17;102019.22;;;17.22;42.63
60854;BME280;48554;50.766;2.900;2023-01-26T11:12:38;102011.28;;;17.33;42.31
60854;BME280;48554;50.766;2.900;2023-01-26T11:17:23;102014.16;;;17.39;42.28
60854;BME280;48554;50.766;2.900;2023-01-26T11:30:26;102006.03;;;17.20;42.99
60854;BME280;48554;50.766;2.900;2023-01-26T11:35:54;102005.03;;;17.15;43.05
60854;BME280;48554;50.766;2.900;2023-01-26T11:54:42;102002.59;;;17.38;42.41
60854;BME280;48554;50.766;2.900;2023-01-26T11:59:35;102004.94;;;17.28;42.65
60854;BME280;48554;50.766;2.900;2023-01-26T12:02:44;102002.69;;;17.25;42.91
60854;BME280;48554;50.766;2.900;2023-01-26T12:04:40;101992.81;;;17.19;42.78
60854;BME280;48554;50.766;2.900;2023-01-26T12:07:07;101997.16;;;17.20;42.97
60854;BME280;48554;50.766;2.900;2023-01-26T12:09:42;101993.06;;;17.17;43.01
60854;BME280;48554;50.766;2.900;2023-01-26T12:12:24;102000.25;;;17.17;42.99
60854;BME280;48554;50.766;2.900;2023-01-26T12:15:05;101993.47;;;17.14;43.00
60854;BME280;48554;50.766;2.900;2023-01-26T12:25:40;101996.22;;;17.39;42.30
60854;BME280;48554;50.766;2.900;2023-01-26T12:30:41;101989.66;;;17.35;42.47
60854;BME280;48554;50.766;2.900;2023-01-26T12:33:02;101994.84;;;17.30;42.64
60854;BME280;48554;50.766;2.900;2023-01-26T12:35:57;101986.19;;;17.28;42.72
60854;BME280;48554;50.766;2.900;2023-01-26T12:41:14;101975.50;;;17.21;42.86
60854;BME280;48554;50.766;2.900;2023-01-26T12:44:12;101972.66;;;17.16;42.89
60854;BME280;48554;50.766;2.900;2023-01-26T12:46:37;101981.09;;;17.20;42.87
60854;BME280;48554;50.766;2.900;2023-01-26T12:51:35;101978.00;;;17.16;42.79
60854;BME280;48554;50.766;2.900;2023-01-26T12:56:38;101969.16;;;17.16;43.02
60854;BME280;48554;50.766;2.900;2023-01-26T12:59:15;101973.06;;;17.20;42.99
60854;BME280;48554;50.766;2.900;2023-01-26T13:01:39;101975.00;;;17.38;42.33
60854;BME280;48554;50.766;2.900;2023-01-26T13:04:07;101972.03;;;17.52;42.13
60854;BME280;48554;50.766;2.900;2023-01-26T13:06:28;101963.38;;;17.50;42.19
60854;BME280;48554;50.766;2.900;2023-01-26T13:13:58;101972.16;;;17.32;42.86
60854;BME280;48554;50.766;2.900;2023-01-26T13:18:51;101968.06;;;17.30;42.96
60854;BME280;48554;50.766;2.900;2023-01-26T13:21:12;101961.88;;;17.29;42.98
60854;BME280;48554;50.766;2.900;2023-01-26T13:23:44;101969.09;;;17.29;43.02
60854;BME280;48554;50.766;2.900;2023-01-26T13:26:17;101972.81;;;17.28;43.03
60854;BME280;48554;50.766;2.900;2023-01-26T13:28:38;101966.44;;;17.29;43.02
60854;BME280;48554;50.766;2.900;2023-01-26T13:31:03;101964.75;;;17.28;42.83
60854;BME280;48554;50.766;2.900;2023-01-26T13:33:24;101961.88;;;17.29;43.10
60854;BME280;48554;50.766;2.900;2023-01-26T13:35:44;101951.16;;;17.29;43.11
60854;BME280;48554;50.766;2.900;2023-01-26T13:38:32;101961.66;;;17.31;43.18
60854;BME280;48554;50.766;2.900;2023-01-26T13:40:53;101959.53;;;17.40;42.66
60854;BME280;48554;50.766;2.900;2023-01-26T13:43:36;101956.28;;;17.63;42.20
60854;BME280;48554;50.766;2.900;2023-01-26T13:46:37;101953.34;;;17.71;42.08
60854;BME280;48554;50.766;2.900;2023-01-26T13:48:58;101960.84;;;17.55;42.24
60854;BME280;48554;50.766;2.900;2023-01-26T13:51:21;101965.03;;;17.51;42.78